»·PEaware :: N323DE KPHX-KSAN

N323DE :: KPHX-KSAN

FLIGHT INFORMATION

Flight Status: Arrived
Operator: Privately registered:
United States
More flights under this callsign
Pilot: Andrew K. (30318)
Aircraft: Unknown
(LEG2)
More flights by this aircraft type
Origin: KPHX Phoenix Sky Harbor Intl
United States
Destination: KSAN San Diego Intl-Lindbergh
United States
More flights between these airports :: More routes between these airports
Route: +BXK JUDTH V66 IPL V317 MZB
File this flight plan on PilotEdge
Remarks: USING FLIGHT1 GTN. IT HAS AIRAC CYCLE 1909.
Altitude:
(Current/Filed)
26,000ft
Speed:
(Current/Filed)
260kts
Departed: 10-Jul-20 05:17 PM
Arrived: 10-Jul-20 06:27 PM
Distance/Time
Traveled:
263nm/1:10
Distance/Time
To Go:
Arrived

Flight Plot

Page will automatically refresh every two minutes.

Flight plan parsing failed; only flown route is shown


Map Options




Map Legend


Flown Route
Filed Route
Departure Airport
Arrival Airport
Navaid (VOR, NDB)
Fix

Horizontal Profiles

Position Reports

Time Latitude Longitude Heading Altitude Ground
Speed
10-Jul-20 17:02 33.426476 -112.022709 92 1138ft 0kts
10-Jul-20 17:03 33.426476 -112.022707 92 1138ft 0kts
10-Jul-20 17:04 33.426476 -112.022705 92 1138ft 0kts
10-Jul-20 17:05 33.426475 -112.022703 92 1138ft 0kts
10-Jul-20 17:06 33.426475 -112.022700 93 1138ft 0kts
10-Jul-20 17:07 33.426475 -112.022698 93 1138ft 0kts
10-Jul-20 17:08 33.426475 -112.022696 92 1138ft 0kts
10-Jul-20 17:09 33.426475 -112.022694 92 1138ft 0kts
10-Jul-20 17:10 33.426475 -112.022692 92 1138ft 0kts
10-Jul-20 17:11 33.426475 -112.022689 92 1138ft 0kts
10-Jul-20 17:12 33.426500 -112.022537 67 1138ft 5kts
10-Jul-20 17:13 33.427709 -112.019696 86 1138ft 9kts
10-Jul-20 17:14 33.427755 -112.015114 89 1138ft 19kts
10-Jul-20 17:15 33.427966 -112.010761 9 1138ft 1kts
10-Jul-20 17:16 33.429839 -112.024174 293 1708ft 96kts
10-Jul-20 17:17 33.453444 -112.052203 310 3522ft 141kts
10-Jul-20 17:18 33.485204 -112.091713 310 4938ft 187kts
10-Jul-20 17:19 33.520393 -112.136554 310 7117ft 182kts
10-Jul-20 17:20 33.522144 -112.194374 261 9617ft 181kts
10-Jul-20 17:21 33.514928 -112.256894 260 12129ft 195kts
10-Jul-20 17:22 33.507613 -112.325096 260 14651ft 211kts
10-Jul-20 17:23 33.500183 -112.394673 259 17336ft 204kts
10-Jul-20 17:24 33.493002 -112.461351 258 19999ft 194kts
10-Jul-20 17:25 33.485937 -112.526570 257 22108ft 198kts
10-Jul-20 17:26 33.478951 -112.590889 256 23975ft 195kts
10-Jul-20 17:27 33.471773 -112.655939 257 25129ft 207kts
10-Jul-20 17:28 33.463923 -112.727667 257 25843ft 228kts
10-Jul-20 17:30 33.454991 -112.808103 255 25900ft 256kts
10-Jul-20 17:31 33.415231 -112.877121 225 25897ft 259kts
10-Jul-20 17:32 33.367259 -112.942694 225 25896ft 263kts
10-Jul-20 17:33 33.319140 -113.008465 225 25894ft 261kts
10-Jul-20 17:34 33.271492 -113.073476 225 25892ft 259kts
10-Jul-20 17:35 33.223521 -113.138783 225 25891ft 262kts
10-Jul-20 17:36 33.175330 -113.204298 225 25890ft 263kts
10-Jul-20 17:37 33.126713 -113.270272 225 25889ft 264kts
10-Jul-20 17:38 33.078129 -113.336078 224 25889ft 265kts
10-Jul-20 17:39 33.029307 -113.402083 224 25889ft 265kts
10-Jul-20 17:40 32.980502 -113.467946 224 25889ft 265kts
10-Jul-20 17:41 32.931693 -113.533693 224 25889ft 265kts
10-Jul-20 17:42 32.882622 -113.599673 224 25891ft 265kts
10-Jul-20 17:43 32.833602 -113.665465 224 25890ft 265kts
10-Jul-20 17:44 32.807821 -113.747813 256 25891ft 276kts
10-Jul-20 17:44 32.797172 -113.823221 256 25890ft 276kts
10-Jul-20 17:46 32.782108 -113.928333 256 25891ft 277kts
10-Jul-20 17:47 32.775358 -114.019794 265 25892ft 280kts
10-Jul-20 17:47 32.774510 -114.096850 265 25892ft 280kts
10-Jul-20 17:49 32.773292 -114.204882 265 25893ft 280kts
10-Jul-20 17:49 32.772370 -114.282159 265 25894ft 280kts
10-Jul-20 17:50 32.771207 -114.374558 265 25895ft 280kts
10-Jul-20 17:52 32.769760 -114.482626 265 25891ft 280kts
10-Jul-20 17:52 32.768670 -114.559695 265 25889ft 280kts
10-Jul-20 17:53 32.767159 -114.653816 264 25875ft 284kts
10-Jul-20 17:54 32.765433 -114.747091 264 25875ft 281kts
10-Jul-20 17:55 32.763651 -114.839676 264 25875ft 279kts
10-Jul-20 17:56 32.761814 -114.931816 264 25875ft 279kts
10-Jul-20 17:57 32.759905 -115.024235 264 25875ft 279kts
10-Jul-20 17:58 32.757936 -115.116401 264 25875ft 279kts
10-Jul-20 17:59 32.755899 -115.208542 264 25875ft 279kts
10-Jul-20 18:00 32.753794 -115.300698 264 25876ft 278kts
10-Jul-20 18:01 32.751627 -115.392558 264 25870ft 279kts
10-Jul-20 18:02 32.749386 -115.484652 264 25860ft 279kts
10-Jul-20 18:03 32.743558 -115.576361 259 25855ft 277kts
10-Jul-20 18:04 32.734848 -115.667255 260 25861ft 277kts
10-Jul-20 18:05 32.726535 -115.758466 260 25806ft 279kts
10-Jul-20 18:06 32.717817 -115.854399 260 24408ft 304kts
10-Jul-20 18:07 32.708734 -115.954128 260 23914ft 298kts
10-Jul-20 18:08 32.699913 -116.049784 260 23858ft 288kts
10-Jul-20 18:09 32.690690 -116.148757 260 22108ft 311kts
10-Jul-20 18:10 32.680987 -116.252435 260 20200ft 317kts
10-Jul-20 18:11 32.671128 -116.356694 260 18210ft 317kts
10-Jul-20 18:12 32.661216 -116.460529 260 16216ft 313kts
10-Jul-20 18:13 32.651315 -116.563198 260 14221ft 311kts
10-Jul-20 18:14 32.641876 -116.660307 260 12315ft 307kts
10-Jul-20 18:15 32.632498 -116.756048 260 12021ft 276kts
10-Jul-20 18:16 32.623571 -116.846057 260 11298ft 284kts
10-Jul-20 18:17 32.572697 -116.897773 162 9018ft 275kts
10-Jul-20 18:18 32.559386 -116.823967 42 6742ft 276kts
10-Jul-20 18:19 32.624230 -116.839791 313 5145ft 251kts
10-Jul-20 18:20 32.668923 -116.897489 310 5007ft 225kts
10-Jul-20 18:21 32.696345 -116.959091 258 4645ft 219kts
10-Jul-20 18:22 32.694875 -117.030229 287 3324ft 215kts
10-Jul-20 18:23 32.709701 -117.091333 285 2646ft 174kts
10-Jul-20 18:24 32.721512 -117.141003 286 891ft 134kts
10-Jul-20 18:25 32.729176 -117.171724 286 236ft 84kts
10-Jul-20 18:26 32.733856 -117.190729 307 18ft 14kts
10-Jul-20 18:27 32.734555 -117.189120 106 18ft 22kts
10-Jul-20 18:28 32.732081 -117.178897 105 18ft 20kts
10-Jul-20 18:29 32.732414 -117.176943 186 18ft 0kts
10-Jul-20 18:30 32.732414 -117.176943 186 18ft 0kts
10-Jul-20 18:31 32.732414 -117.176943 186 18ft 0kts
10-Jul-20 18:32 32.732414 -117.176943 186 18ft 0kts
10-Jul-20 18:33 32.732414 -117.176943 186 18ft 0kts
10-Jul-20 18:34 32.732414 -117.176943 186 18ft 0kts
10-Jul-20 18:35 32.732414 -117.176943 186 18ft 0kts
10-Jul-20 18:36 32.732414 -117.176943 186 18ft 0kts
10-Jul-20 18:37 32.732412 -117.176943 185 18ft 0kts
10-Jul-20 18:38 32.732410 -117.176944 185 18ft 0kts
10-Jul-20 18:39 32.732408 -117.176944 185 18ft 0kts
10-Jul-20 18:40 32.732406 -117.176944 185 18ft 0kts

Navigation Log

Ident Type
Flight plan parsing failed, navigation log unavailable